createdAt,value
2023-03-02T00:01:30.429Z,1.50
2023-03-02T00:04:10.335Z,1.90
2023-03-02T00:06:47.422Z,1.90
2023-03-02T00:09:24.769Z,1.90
2023-03-02T00:12:01.042Z,2.10
2023-03-02T00:14:38.178Z,2.20
2023-03-02T00:17:14.768Z,2.00
2023-03-02T00:19:51.315Z,1.80
2023-03-02T00:22:27.720Z,1.40
2023-03-02T00:25:04.038Z,2.40
2023-03-02T00:27:40.623Z,1.70
2023-03-02T00:30:21.502Z,1.60
2023-03-02T00:32:58.547Z,1.50
2023-03-02T00:35:38.485Z,1.40
2023-03-02T00:38:14.471Z,1.40
2023-03-02T00:40:53.546Z,1.70
2023-03-02T00:43:29.689Z,1.50
2023-03-02T00:46:13.461Z,1.50
2023-03-02T00:48:49.782Z,1.40
2023-03-02T00:51:25.128Z,1.40
2023-03-02T00:54:03.028Z,1.40
2023-03-02T00:56:38.563Z,1.50
2023-03-02T00:59:26.478Z,1.70
2023-03-02T01:02:25.516Z,1.60
2023-03-02T01:05:02.677Z,1.50
2023-03-02T01:07:38.845Z,1.90
2023-03-02T01:10:20.226Z,1.60
2023-03-02T01:12:56.406Z,1.60
2023-03-02T01:15:32.240Z,1.80
2023-03-02T01:18:08.946Z,1.60
2023-03-02T01:20:45.702Z,1.50
2023-03-02T01:23:21.555Z,1.40
2023-03-02T01:25:57.798Z,1.50
2023-03-02T01:28:34.680Z,1.60
2023-03-02T01:31:10.821Z,1.50
2023-03-02T01:33:47.573Z,1.60
2023-03-02T01:36:22.744Z,1.30
2023-03-02T01:38:58.743Z,1.50
2023-03-02T01:41:35.308Z,1.50
2023-03-02T01:44:58.051Z,1.50
2023-03-02T01:47:39.983Z,1.50
2023-03-02T01:50:29.279Z,1.50
2023-03-02T01:53:07.662Z,1.60
2023-03-02T01:55:45.559Z,1.60
2023-03-02T01:58:23.854Z,1.70
2023-03-02T02:01:03.384Z,1.50
2023-03-02T02:03:41.101Z,1.50
2023-03-02T02:06:23.723Z,1.70
2023-03-02T02:09:01.299Z,1.70
2023-03-02T02:11:37.679Z,1.80
2023-03-02T02:14:13.264Z,2.20
2023-03-02T02:16:49.992Z,1.90
2023-03-02T02:19:44.352Z,1.60
2023-03-02T02:22:32.223Z,1.60
2023-03-02T02:25:21.018Z,1.60
2023-03-02T02:27:58.825Z,1.60
2023-03-02T02:30:40.269Z,1.50
2023-03-02T02:33:23.389Z,1.50
2023-03-02T02:36:12.256Z,1.90
2023-03-02T02:38:53.222Z,1.70
2023-03-02T02:41:36.063Z,1.50
2023-03-02T02:44:14.914Z,1.50
2023-03-02T02:46:50.988Z,1.60
2023-03-02T02:49:38.270Z,1.80
2023-03-02T02:52:19.981Z,1.90
2023-03-02T02:55:00.526Z,2.00
2023-03-02T02:57:37.587Z,2.10
2023-03-02T03:00:25.291Z,2.10
2023-03-02T03:03:32.007Z,2.10
2023-03-02T03:06:16.927Z,2.20
2023-03-02T03:09:05.074Z,1.90
2023-03-02T03:11:50.419Z,2.80
2023-03-02T03:14:33.246Z,2.10
2023-03-02T03:17:12.658Z,2.00
2023-03-02T03:19:53.646Z,2.70
2023-03-02T03:22:29.522Z,2.40
2023-03-02T03:25:05.713Z,3.00
2023-03-02T03:27:43.010Z,2.40
2023-03-02T03:30:22.406Z,2.40
2023-03-02T03:32:59.037Z,2.50
2023-03-02T03:35:37.123Z,2.30
2023-03-02T03:38:14.202Z,2.40
2023-03-02T03:40:51.132Z,2.20
2023-03-02T03:43:28.128Z,2.60
2023-03-02T03:46:04.812Z,3.80
2023-03-02T03:48:40.647Z,4.20
2023-03-02T03:51:16.250Z,4.40
2023-03-02T03:54:02.084Z,5.20
2023-03-02T03:56:47.298Z,5.90
2023-03-02T03:59:27.900Z,5.20
2023-03-02T04:02:06.670Z,5.80
2023-03-02T04:04:49.014Z,6.30
2023-03-02T04:07:26.828Z,6.50
2023-03-02T04:10:05.747Z,5.50
2023-03-02T04:12:46.652Z,4.80
2023-03-02T04:15:23.579Z,4.90
2023-03-02T04:18:00.759Z,5.60
2023-03-02T04:20:40.806Z,5.10
2023-03-02T04:23:17.270Z,6.30
2023-03-02T04:25:52.623Z,6.40
2023-03-02T04:28:30.988Z,6.50
2023-03-02T04:31:07.636Z,6.40
2023-03-02T04:33:44.369Z,5.90
2023-03-02T04:36:21.992Z,5.00
2023-03-02T04:38:59.392Z,4.50
2023-03-02T04:41:35.268Z,3.60
2023-03-02T04:44:11.699Z,3.70
2023-03-02T04:46:47.894Z,2.90
2023-03-02T04:49:24.631Z,3.00
2023-03-02T04:52:00.460Z,2.50
2023-03-02T04:54:37.953Z,2.60
2023-03-02T04:57:14.559Z,2.90
2023-03-02T04:59:50.997Z,2.90
2023-03-02T05:02:27.433Z,2.70
2023-03-02T05:05:04.173Z,2.90
2023-03-02T05:07:40.193Z,2.70
2023-03-02T05:10:19.429Z,2.60
2023-03-02T05:13:03.041Z,2.60
2023-03-02T05:15:42.358Z,2.70
2023-03-02T05:18:19.429Z,2.70
2023-03-02T05:20:56.487Z,2.40
2023-03-02T05:23:32.290Z,2.60
2023-03-02T05:26:09.589Z,2.10
2023-03-02T05:28:46.577Z,2.40
2023-03-02T05:31:29.665Z,2.30
2023-03-02T05:34:08.027Z,2.00
2023-03-02T05:36:44.953Z,2.50
2023-03-02T05:39:21.126Z,2.90
2023-03-02T05:41:57.173Z,2.40
2023-03-02T05:44:33.256Z,2.40
2023-03-02T05:47:09.757Z,2.30
2023-03-02T05:49:46.345Z,2.50
2023-03-02T05:52:22.747Z,2.60
2023-03-02T05:54:59.600Z,3.10
2023-03-02T05:57:36.475Z,2.50
2023-03-02T06:00:23.102Z,2.90
2023-03-02T06:03:00.224Z,2.60
2023-03-02T06:05:36.836Z,2.70
2023-03-02T06:08:13.223Z,2.90
2023-03-02T06:10:51.030Z,3.00
2023-03-02T06:13:27.518Z,2.90
2023-03-02T06:16:04.602Z,2.80
2023-03-02T06:18:41.716Z,2.90
2023-03-02T06:21:18.105Z,5.30
2023-03-02T06:23:54.447Z,3.60
2023-03-02T06:26:30.771Z,3.60
2023-03-02T06:29:08.006Z,3.10
2023-03-02T06:31:44.945Z,3.10
2023-03-02T06:34:21.451Z,3.20
2023-03-02T06:36:58.347Z,3.50
2023-03-02T06:39:35.535Z,3.20
2023-03-02T06:42:12.411Z,3.10
2023-03-02T06:44:48.168Z,3.40
2023-03-02T06:47:24.437Z,3.30
2023-03-02T06:50:00.990Z,3.80
2023-03-02T06:52:37.641Z,3.20
2023-03-02T06:55:18.294Z,3.10
2023-03-02T06:57:55.118Z,3.70
2023-03-02T07:00:33.581Z,3.50
2023-03-02T07:03:10.008Z,3.60
2023-03-02T07:05:46.470Z,10.30
2023-03-02T07:08:22.653Z,6.90
2023-03-02T07:10:58.991Z,4.70
2023-03-02T07:13:35.282Z,4.00
2023-03-02T07:16:15.840Z,4.00
2023-03-02T07:18:52.085Z,4.10
2023-03-02T07:21:28.655Z,3.20
2023-03-02T07:24:04.667Z,3.60
2023-03-02T07:26:41.257Z,3.40
2023-03-02T07:29:17.665Z,3.50
2023-03-02T07:31:57.470Z,3.30
2023-03-02T07:34:33.778Z,3.50
2023-03-02T07:37:09.914Z,3.50
2023-03-02T07:39:47.658Z,3.10
2023-03-02T07:42:24.353Z,4.10
2023-03-02T07:45:04.772Z,4.20
2023-03-02T07:47:40.491Z,4.20
2023-03-02T07:50:20.749Z,4.00
2023-03-02T07:52:59.684Z,5.00
2023-03-02T07:55:37.176Z,4.50
2023-03-02T07:58:12.881Z,4.60
2023-03-02T08:00:50.176Z,4.10
2023-03-02T08:03:30.863Z,4.60
2023-03-02T08:06:11.471Z,4.50
2023-03-02T08:08:47.254Z,4.70
2023-03-02T08:11:24.564Z,4.10
2023-03-02T08:14:03.684Z,4.00
2023-03-02T08:16:39.982Z,4.80
2023-03-02T08:19:16.278Z,5.10
2023-03-02T08:21:53.748Z,5.10
2023-03-02T08:24:30.057Z,4.60
2023-03-02T08:27:06.666Z,5.00
2023-03-02T08:29:43.398Z,4.70
2023-03-02T08:32:18.869Z,4.90
2023-03-02T08:34:54.851Z,5.30
2023-03-02T08:37:31.336Z,4.10
2023-03-02T08:40:08.520Z,3.60
2023-03-02T08:42:44.426Z,4.60
2023-03-02T08:45:21.939Z,6.60
2023-03-02T08:47:59.832Z,6.00
2023-03-02T08:50:36.434Z,6.60
2023-03-02T08:53:12.751Z,7.50
2023-03-02T08:55:49.320Z,6.70
2023-03-02T08:58:25.447Z,5.70
2023-03-02T09:01:01.594Z,6.10
2023-03-02T09:03:37.695Z,3.90
2023-03-02T09:06:19.014Z,3.60
2023-03-02T09:08:55.574Z,3.50
2023-03-02T09:11:32.991Z,3.50
2023-03-02T09:14:09.245Z,3.90
2023-03-02T09:16:45.427Z,4.20
2023-03-02T09:19:22.301Z,3.80
2023-03-02T09:21:58.490Z,3.90
2023-03-02T09:24:34.617Z,3.50
2023-03-02T09:27:11.082Z,3.60
2023-03-02T09:29:48.069Z,4.20
2023-03-02T09:32:25.023Z,3.40
2023-03-02T09:35:01.630Z,3.70
2023-03-02T09:37:39.183Z,3.80
2023-03-02T09:40:25.424Z,3.60
2023-03-02T09:43:28.710Z,3.40
2023-03-02T09:46:25.364Z,3.80
2023-03-02T09:49:18.968Z,3.30
2023-03-02T09:52:11.867Z,3.10
2023-03-02T09:54:48.473Z,3.10
2023-03-02T09:57:31.741Z,3.20
2023-03-02T10:00:19.586Z,3.30
2023-03-02T10:03:14.902Z,4.70
2023-03-02T10:05:54.243Z,3.90
2023-03-02T10:08:32.967Z,3.90
2023-03-02T10:11:20.579Z,3.50
2023-03-02T10:14:06.352Z,3.40
2023-03-02T10:16:50.794Z,2.80
2023-03-02T10:20:57.805Z,2.40
2023-03-02T10:23:50.662Z,2.00
2023-03-02T10:26:40.138Z,1.90
2023-03-02T10:29:46.148Z,1.90
2023-03-02T10:32:27.640Z,1.80
2023-03-02T10:35:04.897Z,1.60
2023-03-02T10:37:41.226Z,1.60
2023-03-02T10:40:45.720Z,1.80
2023-03-02T10:43:32.773Z,1.60
2023-03-02T10:46:11.408Z,1.50
2023-03-02T10:48:58.622Z,1.70
2023-03-02T10:51:37.614Z,1.40
2023-03-02T10:54:17.929Z,2.00
2023-03-02T10:57:00.370Z,1.90
2023-03-02T10:59:48.673Z,2.00
2023-03-02T11:02:27.804Z,1.90
2023-03-02T11:05:21.236Z,1.90
2023-03-02T11:08:22.528Z,2.00
2023-03-02T11:11:04.826Z,1.70
2023-03-02T11:13:42.871Z,1.50
2023-03-02T11:16:35.893Z,1.60
2023-03-02T11:19:18.756Z,1.90
2023-03-02T11:22:07.320Z,1.70
2023-03-02T11:24:51.789Z,1.70
2023-03-02T11:27:33.372Z,1.50
2023-03-02T11:30:22.774Z,1.50
2023-03-02T11:33:07.242Z,1.50
2023-03-02T11:35:53.622Z,1.90
2023-03-02T11:38:34.585Z,1.90
2023-03-02T11:41:25.006Z,2.00
2023-03-02T11:44:04.525Z,1.60
2023-03-02T11:46:47.380Z,1.80
2023-03-02T11:50:18.245Z,1.80
2023-03-02T11:53:00.509Z,1.80
2023-03-02T11:55:43.091Z,1.70
2023-03-02T11:58:27.636Z,1.60
2023-03-02T12:01:05.736Z,2.00
2023-03-02T12:03:46.901Z,1.60
2023-03-02T12:06:41.075Z,1.70
2023-03-02T12:09:41.076Z,1.80
2023-03-02T12:12:42.790Z,1.80
2023-03-02T12:15:51.450Z,2.20
2023-03-02T12:18:52.256Z,2.50
2023-03-02T12:21:29.488Z,1.80
2023-03-02T12:24:07.191Z,2.00
2023-03-02T12:26:45.216Z,2.20
2023-03-02T12:29:40.215Z,2.30
2023-03-02T12:32:30.513Z,1.80
2023-03-02T12:35:14.692Z,1.50
2023-03-02T12:37:57.406Z,1.50
2023-03-02T12:40:52.428Z,2.20
2023-03-02T12:43:35.755Z,1.80
2023-03-02T12:46:36.565Z,2.10
2023-03-02T12:49:39.416Z,2.20
2023-03-02T12:52:31.944Z,2.10
2023-03-02T12:55:18.636Z,2.00
2023-03-02T12:58:01.354Z,2.10
2023-03-02T13:00:40.202Z,2.10
2023-03-02T13:03:21.834Z,2.40
2023-03-02T13:06:05.950Z,2.00
2023-03-02T13:08:43.181Z,1.90
2023-03-02T13:11:28.204Z,1.90
2023-03-02T13:14:05.960Z,2.30
2023-03-02T13:16:42.734Z,2.60
2023-03-02T13:19:23.399Z,2.10
2023-03-02T13:22:01.203Z,2.10
2023-03-02T13:24:50.994Z,2.20
2023-03-02T13:27:28.007Z,1.80
2023-03-02T13:30:14.944Z,2.10
2023-03-02T13:32:52.211Z,2.40
2023-03-02T13:35:30.473Z,1.90
2023-03-02T13:38:17.005Z,2.00
2023-03-02T13:40:54.339Z,2.20
2023-03-02T13:43:40.391Z,2.30
2023-03-02T13:46:39.281Z,2.20
2023-03-02T13:49:17.329Z,2.30
2023-03-02T13:51:58.899Z,2.10
2023-03-02T13:54:39.346Z,1.80
2023-03-02T13:57:30.780Z,2.10
2023-03-02T14:00:14.484Z,1.80
2023-03-02T14:02:50.895Z,1.90
2023-03-02T14:05:33.723Z,1.60
2023-03-02T14:08:11.974Z,2.00
2023-03-02T14:10:48.805Z,1.90
2023-03-02T14:13:33.900Z,2.00
2023-03-02T14:16:14.947Z,1.60
2023-03-02T14:18:56.319Z,1.50
2023-03-02T14:21:33.219Z,1.40
2023-03-02T14:24:11.289Z,1.50
2023-03-02T14:26:51.488Z,1.50
2023-03-02T14:29:34.784Z,1.60
2023-03-02T14:32:13.817Z,1.70
2023-03-02T14:34:49.939Z,3.10
2023-03-02T14:37:32.018Z,2.50
2023-03-02T14:40:15.032Z,2.00
2023-03-02T14:42:54.291Z,1.70
2023-03-02T14:45:31.587Z,1.50
2023-03-02T14:48:12.706Z,1.80
2023-03-02T14:50:52.679Z,2.10
2023-03-02T14:53:36.718Z,1.70
2023-03-02T14:56:16.169Z,1.90
2023-03-02T14:58:52.973Z,1.80
2023-03-02T15:01:32.497Z,1.70
2023-03-02T15:04:09.276Z,1.90
2023-03-02T15:06:49.241Z,2.00
2023-03-02T15:09:26.244Z,1.70
2023-03-02T15:12:03.622Z,1.70
2023-03-02T15:14:39.969Z,1.90
2023-03-02T15:17:17.220Z,1.70
2023-03-02T15:19:54.492Z,1.70
2023-03-02T15:22:31.524Z,1.80
2023-03-02T15:25:09.465Z,2.40
2023-03-02T15:27:45.389Z,2.00
2023-03-02T15:30:24.363Z,2.40
2023-03-02T15:33:01.140Z,2.00
2023-03-02T15:35:40.460Z,2.20
2023-03-02T15:38:16.786Z,2.30
2023-03-02T15:40:52.953Z,2.40
2023-03-02T15:43:29.764Z,2.30
2023-03-02T15:46:06.361Z,2.40
2023-03-02T15:48:43.126Z,2.50
2023-03-02T15:51:19.436Z,3.70
2023-03-02T15:53:55.962Z,2.80
2023-03-02T15:56:42.338Z,2.00
2023-03-02T15:59:20.812Z,3.40
2023-03-02T16:01:59.819Z,2.40
2023-03-02T16:04:38.524Z,2.70
2023-03-02T16:07:15.663Z,2.60
2023-03-02T16:09:53.539Z,2.20
2023-03-02T16:12:31.823Z,2.60
2023-03-02T16:15:11.694Z,2.60
2023-03-02T16:17:49.051Z,3.00
2023-03-02T16:20:27.149Z,2.90
2023-03-02T16:23:06.423Z,2.90
2023-03-02T16:25:45.929Z,2.80
2023-03-02T16:28:23.385Z,2.90
2023-03-02T16:31:12.154Z,3.20
2023-03-02T16:33:49.845Z,3.40
2023-03-02T16:36:26.540Z,2.90
2023-03-02T16:39:04.112Z,5.80
2023-03-02T16:41:41.458Z,6.60
2023-03-02T16:44:18.219Z,5.90
2023-03-02T16:46:57.268Z,4.90
2023-03-02T16:49:34.345Z,4.50
2023-03-02T16:52:12.172Z,4.30
2023-03-02T16:54:48.190Z,3.90
2023-03-02T16:57:23.990Z,6.50
2023-03-02T17:00:01.221Z,5.10
2023-03-02T17:02:37.590Z,5.30
2023-03-02T17:05:14.787Z,4.40
2023-03-02T17:07:52.014Z,4.40
2023-03-02T17:10:29.946Z,4.50
2023-03-02T17:13:06.074Z,4.20
2023-03-02T17:15:42.827Z,4.90
2023-03-02T17:18:19.710Z,4.80
2023-03-02T17:21:00.080Z,4.80
2023-03-02T17:23:37.175Z,5.60
2023-03-02T17:26:14.284Z,5.40
2023-03-02T17:28:50.440Z,6.00
2023-03-02T17:31:26.593Z,5.80
2023-03-02T17:34:03.385Z,6.10
2023-03-02T17:36:40.481Z,6.10
2023-03-02T17:39:16.967Z,6.30
2023-03-02T17:41:53.043Z,9.10
2023-03-02T17:44:30.167Z,10.90
2023-03-02T17:47:08.519Z,6.50
2023-03-02T17:49:47.756Z,5.00
2023-03-02T17:52:24.490Z,4.50
2023-03-02T17:55:00.792Z,5.10
2023-03-02T17:57:37.923Z,6.10
2023-03-02T18:00:22.375Z,8.80
2023-03-02T18:02:59.186Z,7.80
2023-03-02T18:05:36.146Z,7.20
2023-03-02T18:08:13.546Z,6.80
2023-03-02T18:10:49.697Z,5.80
2023-03-02T18:13:27.088Z,5.70
2023-03-02T18:16:03.580Z,9.30
2023-03-02T18:18:40.515Z,6.90
2023-03-02T18:21:17.647Z,7.30
2023-03-02T18:23:54.959Z,6.30
2023-03-02T18:26:31.868Z,6.20
2023-03-02T18:29:08.511Z,5.40
2023-03-02T18:31:45.867Z,5.00
2023-03-02T18:34:22.494Z,6.20
2023-03-02T18:36:59.349Z,6.20
2023-03-02T18:39:38.108Z,5.20
2023-03-02T18:42:17.828Z,6.20
2023-03-02T18:44:54.366Z,5.40
2023-03-02T18:47:30.528Z,5.40
2023-03-02T18:50:08.104Z,6.80
2023-03-02T18:52:45.656Z,6.80
2023-03-02T18:55:22.259Z,6.50
2023-03-02T18:57:58.526Z,5.80
2023-03-02T19:00:36.664Z,5.30
2023-03-02T19:03:13.169Z,5.20
2023-03-02T19:05:50.814Z,5.80
2023-03-02T19:08:27.464Z,5.50
2023-03-02T19:11:04.451Z,6.10
2023-03-02T19:13:41.072Z,7.10
2023-03-02T19:16:18.595Z,8.10
2023-03-02T19:18:55.272Z,7.40
2023-03-02T19:21:30.644Z,7.40
2023-03-02T19:24:07.609Z,5.90
2023-03-02T19:26:44.587Z,7.30
2023-03-02T19:29:22.925Z,6.90
2023-03-02T19:31:59.196Z,6.20
2023-03-02T19:34:36.242Z,6.50
2023-03-02T19:37:12.329Z,5.70
2023-03-02T19:39:47.982Z,5.10
2023-03-02T19:42:24.150Z,4.60
2023-03-02T19:45:00.735Z,5.50
2023-03-02T19:47:36.868Z,5.50
2023-03-02T19:50:16.582Z,5.60
2023-03-02T19:52:53.492Z,5.30
2023-03-02T19:55:30.548Z,5.80
2023-03-02T19:58:08.217Z,5.80
2023-03-02T20:00:44.278Z,6.70
2023-03-02T20:03:21.277Z,6.20
2023-03-02T20:06:01.189Z,6.30
2023-03-02T20:08:37.999Z,5.50
2023-03-02T20:11:14.786Z,6.50
2023-03-02T20:13:52.016Z,5.70
2023-03-02T20:16:28.920Z,5.60
2023-03-02T20:19:06.610Z,5.30
2023-03-02T20:21:43.590Z,5.10
2023-03-02T20:24:20.303Z,6.00
2023-03-02T20:26:56.482Z,5.70
2023-03-02T20:29:33.050Z,4.50
2023-03-02T20:32:10.984Z,5.60
2023-03-02T20:34:48.380Z,5.00
2023-03-02T20:37:26.517Z,5.00
2023-03-02T20:40:02.898Z,5.00
2023-03-02T20:42:40.975Z,4.80
2023-03-02T20:45:18.926Z,5.20
2023-03-02T20:47:55.133Z,5.00
2023-03-02T20:50:36.009Z,4.80
2023-03-02T20:53:13.903Z,5.40
2023-03-02T20:55:50.037Z,5.00
2023-03-02T20:58:26.237Z,5.10
2023-03-02T21:01:02.611Z,5.60
2023-03-02T21:03:39.274Z,6.00
2023-03-02T21:06:17.298Z,5.40
2023-03-02T21:08:54.956Z,5.50
2023-03-02T21:11:30.754Z,6.00
2023-03-02T21:14:07.598Z,6.00
2023-03-02T21:16:45.686Z,6.20
2023-03-02T21:19:23.767Z,5.70
2023-03-02T21:22:00.792Z,5.50
2023-03-02T21:24:37.262Z,5.80
2023-03-02T21:27:15.079Z,5.10
2023-03-02T21:29:51.732Z,5.50
2023-03-02T21:32:31.214Z,5.30
2023-03-02T21:35:10.373Z,6.00
2023-03-02T21:37:47.190Z,5.60
2023-03-02T21:40:31.905Z,5.30
2023-03-02T21:43:09.241Z,5.20
2023-03-02T21:45:46.984Z,4.60
2023-03-02T21:48:23.234Z,4.70
2023-03-02T21:50:59.791Z,4.30
2023-03-02T21:53:35.537Z,5.00
2023-03-02T21:56:13.567Z,5.00
2023-03-02T21:58:50.156Z,5.10
2023-03-02T22:01:28.049Z,4.70
2023-03-02T22:04:04.349Z,5.00
2023-03-02T22:06:42.953Z,5.20
2023-03-02T22:09:19.990Z,4.80
2023-03-02T22:11:57.996Z,4.90
2023-03-02T22:14:35.181Z,4.60
2023-03-02T22:17:22.342Z,5.10
2023-03-02T22:19:58.872Z,4.60
2023-03-02T22:22:35.797Z,4.70
2023-03-02T22:25:22.337Z,5.00
2023-03-02T22:27:59.223Z,5.60
2023-03-02T22:30:35.546Z,4.70
2023-03-02T22:33:21.960Z,4.70
2023-03-02T22:36:03.747Z,4.20
2023-03-02T22:38:41.314Z,3.90
2023-03-02T22:41:22.581Z,3.90
2023-03-02T22:43:59.343Z,4.00
2023-03-02T22:46:36.510Z,4.50
2023-03-02T22:49:24.909Z,4.30
2023-03-02T22:52:06.457Z,4.40
2023-03-02T22:54:45.866Z,4.70
2023-03-02T22:57:39.825Z,4.40
2023-03-02T23:00:42.808Z,4.60
2023-03-02T23:03:26.626Z,4.80
2023-03-02T23:06:02.973Z,4.50
2023-03-02T23:08:39.845Z,3.80
2023-03-02T23:11:23.523Z,3.40
2023-03-02T23:14:03.303Z,3.90
2023-03-02T23:16:41.509Z,3.80
2023-03-02T23:19:18.583Z,3.70
2023-03-02T23:21:56.870Z,3.90
2023-03-02T23:24:32.294Z,4.90
2023-03-02T23:27:09.808Z,4.20
2023-03-02T23:29:46.600Z,4.10
2023-03-02T23:32:23.103Z,4.40
2023-03-02T23:34:59.811Z,4.00
2023-03-02T23:37:36.537Z,4.10
2023-03-02T23:40:21.885Z,4.20
2023-03-02T23:42:58.720Z,3.40
2023-03-02T23:45:35.420Z,3.70
2023-03-02T23:48:13.126Z,3.40
2023-03-02T23:50:50.761Z,3.80
2023-03-02T23:53:26.955Z,3.70
2023-03-02T23:56:04.414Z,3.70
2023-03-02T23:58:40.842Z,3.90
